Terminal Aerodrome Forecast
Issued by NWS Mt. Holly, NJ

Current Version | Previous Version | Text Only | Print | Product List | Glossary On
Versions: 1 2 3 4 5 6 7 8 9 10 11 12 13 14 15
000
FTUS41 KPHI 181100
TAFACY
TAF
KACY 181140Z 1812/1912 VRB03KT P6SM SCT080
     FM181500 33006KT P6SM BKN080
     FM181800 29008KT P6SM FEW050
     FM190000 VRB03KT P6SM FEW050
     FM190500 36003KT P6SM SKC
     FM191000 02006KT P6SM SKC=

USA.gov is the U.S. government's official web portal to all federal, state and local government web resources and services.